Time;durP1;ratioP1;P1;durP2;ratioP2;P2;SDS_P1;SDS_P2;PMS_P1;PMS_P2;Temp;Humidity;BMP_temperature;BMP_pressure;BME280_temperature;BME280_humidity;BME280_pressure;Samples;Min_cycle;Max_cycle;Signal;HPM_P1;HPM_P2
2022/04/17 00:00:19;;;;;;;33.88;15.00;;;;;;;1.58;58.32;99705.63;5091053;28;20023;-74
2022/04/17 00:02:44;;;;;;;35.03;14.85;;;;;;;1.51;58.78;99707.47;5090395;28;20012;-74
2022/04/17 00:05:10;;;;;;;29.58;13.82;;;;;;;1.44;58.09;99704.75;5091191;28;20073;-74
2022/04/17 00:07:36;;;;;;;37.22;14.32;;;;;;;1.37;58.74;99701.22;5091063;28;20130;-74
2022/04/17 00:10:03;;;;;;;40.90;16.10;;;;;;;1.32;58.66;99709.13;5091326;28;20498;-74
2022/04/17 00:12:28;;;;;;;29.65;13.15;;;;;;;1.25;58.93;99711.78;5090965;28;20028;-74
2022/04/17 00:14:55;;;;;;;29.30;10.98;;;;;;;1.21;59.07;99715.97;5090821;28;20126;-74
2022/04/17 00:17:21;;;;;;;30.58;11.48;;;;;;;1.16;59.04;99719.25;5090906;28;20044;-73
2022/04/17 00:19:46;;;;;;;32.17;12.52;;;;;;;1.15;59.80;99714.88;5089788;28;20024;-73
2022/04/17 00:22:13;;;;;;;22.77;9.82;;;;;;;1.14;59.26;99721.31;5090983;28;20435;-73
2022/04/17 00:24:39;;;;;;;27.92;11.43;;;;;;;1.12;59.63;99712.59;5090966;28;20043;-73
2022/04/17 00:27:04;;;;;;;23.60;9.45;;;;;;;1.11;59.19;99710.91;5091121;28;20065;-73
2022/04/17 00:29:30;;;;;;;18.08;8.10;;;;;;;1.07;59.54;99715.06;5090772;28;20031;-73
2022/04/17 00:31:58;;;;;;;15.63;7.40;;;;;;;1.04;59.63;99704.66;5090938;28;20023;-73
2022/04/17 00:34:29;;;;;;;15.05;7.55;;;;;;;1.02;59.61;99701.31;5090530;28;20111;-74
2022/04/17 00:36:59;;;;;;;16.15;7.45;;;;;;;0.97;59.71;99706.53;5090465;28;20558;-72
2022/04/17 00:39:25;;;;;;;18.63;9.57;;;;;;;0.95;59.86;99711.28;5090249;28;20031;-72
2022/04/17 00:41:50;;;;;;;25.02;11.95;;;;;;;0.90;59.93;99706.47;5090406;28;20038;-73
2022/04/17 00:44:16;;;;;;;25.33;10.93;;;;;;;0.85;59.72;99698.16;5090101;28;20028;-72
2022/04/17 00:46:41;;;;;;;25.35;10.77;;;;;;;0.82;60.19;99699.41;5090150;28;20044;-72
2022/04/17 00:49:07;;;;;;;23.83;10.85;;;;;;;0.79;60.28;99705.19;5089519;28;20551;-72
2022/04/17 00:51:36;;;;;;;25.45;11.00;;;;;;;0.79;60.36;99704.38;5089848;28;20034;-72
2022/04/17 00:54:04;;;;;;;23.90;10.63;;;;;;;0.78;60.28;99695.44;5087643;28;20024;-72
2022/04/17 00:56:31;;;;;;;18.33;8.48;;;;;;;0.81;60.31;99700.44;5090138;28;20024;-72
2022/04/17 00:58:57;;;;;;;17.80;8.48;;;;;;;0.83;60.90;99695.66;5088334;28;20028;-72
2022/04/17 01:01:23;;;;;;;12.30;6.60;;;;;;;0.84;60.84;99693.78;5089951;28;20031;-72
2022/04/17 01:03:50;;;;;;;15.02;6.65;;;;;;;0.85;60.96;99693.59;5089500;28;20039;-72
2022/04/17 01:06:16;;;;;;;15.20;7.78;;;;;;;0.85;60.61;99685.50;5087751;28;20069;-72
2022/04/17 01:08:41;;;;;;;14.00;7.63;;;;;;;0.83;60.42;99684.84;5089493;28;20024;-72
2022/04/17 01:11:11;;;;;;;14.02;7.20;;;;;;;0.79;60.73;99683.59;5090175;28;20071;-71
2022/04/17 01:13:41;;;;;;;11.30;7.15;;;;;;;0.77;60.82;99680.25;5089920;28;20052;-72
2022/04/17 01:16:07;;;;;;;15.75;8.10;;;;;;;0.73;60.64;99674.44;5086312;28;20034;-72
2022/04/17 01:19:03;;;;;;;22.48;10.05;;;;;;;0.67;60.51;99677.94;5089649;28;20036;-72
2022/04/17 01:21:30;;;;;;;20.67;10.40;;;;;;;0.59;60.59;99672.72;5088767;28;20367;-72
2022/04/17 01:26:57;;;;;;;13.05;8.02;;;;;;;0.43;60.81;99676.56;5088451;28;20100;-72
2022/04/17 01:29:36;;;;;;;14.32;7.50;;;;;;;0.35;61.02;99668.63;5089556;28;20039;-72
2022/04/17 01:32:03;;;;;;;20.15;8.82;;;;;;;0.29;61.10;99667.59;5089884;28;20027;-72
2022/04/17 01:34:29;;;;;;;20.73;8.95;;;;;;;0.26;61.43;99665.28;5089878;28;20587;-72
2022/04/17 01:36:55;;;;;;;22.17;9.95;;;;;;;0.21;61.39;99668.56;5090041;28;20020;-72
2022/04/17 01:39:21;;;;;;;19.35;8.82;;;;;;;0.18;61.56;99666.28;5089682;28;20440;-74
2022/04/17 01:41:48;;;;;;;17.83;9.02;;;;;;;0.16;61.58;99670.19;5091058;28;20371;-73
2022/04/17 01:44:16;;;;;;;25.55;12.07;;;;;;;0.15;62.04;99672.06;5089228;28;20039;-73
2022/04/17 01:46:42;;;;;;;30.38;14.40;;;;;;;0.13;61.71;99672.25;5089661;28;20048;-72
2022/04/17 01:49:08;;;;;;;41.17;16.63;;;;;;;0.10;61.55;99667.25;5088629;28;20089;-72
2022/04/17 01:51:40;;;;;;;35.45;14.07;;;;;;;0.07;61.82;99667.63;5088339;28;20032;-72
2022/04/17 01:54:07;;;;;;;30.92;12.48;;;;;;;0.06;61.93;99662.47;5088228;28;20024;-73
2022/04/17 01:56:34;;;;;;;30.92;12.95;;;;;;;0.04;61.88;99661.81;5086450;28;20474;-72
2022/04/17 01:58:59;;;;;;;30.65;12.77;;;;;;;0.00;61.93;99661.41;5086331;28;20020;-73
2022/04/17 02:01:25;;;;;;;28.42;12.73;;;;;;;-0.02;62.18;99672.38;5088237;28;20028;-73
2022/04/17 02:03:50;;;;;;;39.38;16.48;;;;;;;-0.06;62.30;99663.00;5090774;28;20036;-73
2022/04/17 02:06:16;;;;;;;30.70;12.55;;;;;;;-0.10;61.93;99658.22;5085737;28;20077;-73
2022/04/17 02:08:44;;;;;;;30.52;13.20;;;;;;;-0.11;62.71;99667.31;5089453;28;20040;-72
2022/04/17 02:11:10;;;;;;;24.33;11.45;;;;;;;-0.12;62.57;99657.56;5090836;28;20103;-73
2022/04/17 02:13:36;;;;;;;23.45;10.38;;;;;;;-0.15;62.88;99653.38;5088128;28;20397;-74
2022/04/17 02:16:02;;;;;;;24.67;12.00;;;;;;;-0.16;62.54;99657.97;5087088;28;20032;-73
2022/04/17 02:18:28;;;;;;;22.65;12.05;;;;;;;-0.19;62.64;99658.34;5088460;28;20032;-74
2022/04/17 02:20:53;;;;;;;26.75;12.77;;;;;;;-0.22;62.81;99653.34;5087873;28;20051;-73
2022/04/17 02:23:19;;;;;;;24.38;11.40;;;;;;;-0.24;62.95;99655.41;5090857;28;20028;-73
2022/04/17 02:25:44;;;;;;;25.95;11.27;;;;;;;-0.27;62.72;99652.28;5093562;28;20028;-73
2022/04/17 02:28:10;;;;;;;25.02;10.73;;;;;;;-0.31;62.81;99646.44;5090869;28;20043;-73
2022/04/17 02:30:36;;;;;;;29.38;12.30;;;;;;;-0.34;62.97;99647.66;5089524;28;20102;-74
2022/04/17 02:33:03;;;;;;;29.00;12.43;;;;;;;-0.35;63.20;99642.44;5090487;28;20134;-73
2022/04/17 02:35:28;;;;;;;26.05;12.43;;;;;;;-0.35;63.22;99645.16;5093675;28;20061;-73
2022/04/17 02:37:54;;;;;;;32.03;13.13;;;;;;;-0.37;63.03;99645.34;5091568;28;20413;-73
2022/04/17 02:40:19;;;;;;;26.98;12.35;;;;;;;-0.41;63.10;99641.38;5093918;28;20016;-72
2022/04/17 02:42:45;;;;;;;77.72;31.65;;;;;;;-0.44;63.22;99649.84;5094430;28;20024;-72
2022/04/17 02:45:11;;;;;;;53.40;23.05;;;;;;;-0.48;63.42;99637.78;5093230;28;20500;-72
2022/04/17 02:47:42;;;;;;;31.08;16.05;;;;;;;-0.52;63.49;99642.75;5093593;28;20028;-73
2022/04/17 02:50:08;;;;;;;25.27;13.55;;;;;;;-0.53;63.66;99638.38;5094106;28;20051;-72
2022/04/17 02:52:35;;;;;;;25.00;12.07;;;;;;;-0.54;63.71;99641.25;5093665;28;20502;-72
2022/04/17 02:55:01;;;;;;;24.77;11.77;;;;;;;-0.55;63.46;99636.91;5093233;28;20043;-73
2022/04/17 02:57:27;;;;;;;19.95;9.63;;;;;;;-0.57;63.74;99638.94;5093669;28;20107;-72
2022/04/17 02:59:53;;;;;;;15.80;8.68;;;;;;;-0.57;64.05;99638.94;5089639;28;20526;-72
2022/04/17 03:07:58;;;;;;;17.25;8.18;;;;;;;-0.65;64.21;99637.22;5077659;28;20134;-73
2022/04/17 03:10:24;;;;;;;16.10;8.35;;;;;;;-0.68;64.26;99646.56;5092360;28;20035;-73
2022/04/17 03:12:49;;;;;;;15.65;7.82;;;;;;;-0.68;64.15;99645.72;5093238;28;20020;-73
2022/04/17 03:15:15;;;;;;;14.32;7.80;;;;;;;-0.71;64.44;99643.41;5093299;28;20390;-73
2022/04/17 03:17:40;;;;;;;15.80;8.57;;;;;;;-0.71;64.52;99646.94;5093139;28;20040;-73
2022/04/17 03:20:07;;;;;;;16.98;8.80;;;;;;;-0.72;65.08;99641.72;5093094;28;20023;-73
2022/04/17 03:22:32;;;;;;;16.52;9.20;;;;;;;-0.76;64.77;99650.19;5093728;28;20103;-74
2022/04/17 03:25:00;;;;;;;19.55;10.45;;;;;;;-0.76;64.50;99652.88;5093196;28;20458;-74
2022/04/17 03:27:25;;;;;;;24.80;11.38;;;;;;;-0.78;64.65;99652.25;5093134;28;20081;-74
2022/04/17 03:29:51;;;;;;;21.70;10.23;;;;;;;-0.81;64.42;99649.13;5092913;28;20059;-73
2022/04/17 03:32:16;;;;;;;19.00;9.40;;;;;;;-0.81;64.64;99654.50;5091228;28;20024;-73
2022/04/17 03:34:41;;;;;;;19.40;9.40;;;;;;;-0.85;64.80;99654.06;5092442;28;20490;-73
2022/04/17 03:37:08;;;;;;;19.15;9.05;;;;;;;-0.89;64.78;99652.78;5087648;28;20082;-73
2022/04/17 03:39:34;;;;;;;24.95;11.73;;;;;;;-0.91;64.75;99655.66;5092556;28;20387;-73
2022/04/17 03:42:00;;;;;;;24.73;11.68;;;;;;;-0.93;64.90;99654.19;5092851;28;20111;-73
2022/04/17 03:44:26;;;;;;;22.55;11.23;;;;;;;-0.93;65.17;99652.31;5091516;28;20482;-74
2022/04/17 03:46:51;;;;;;;23.63;11.25;;;;;;;-0.93;65.30;99656.88;5092685;28;20038;-73
2022/04/17 03:49:17;;;;;;;19.42;9.80;;;;;;;-0.93;65.48;99655.00;5090837;28;20023;-73
2022/04/17 03:51:43;;;;;;;19.88;9.75;;;;;;;-0.92;65.54;99650.47;5092162;28;20024;-73
2022/04/17 03:54:08;;;;;;;22.58;10.10;;;;;;;-0.91;65.55;99647.56;5090566;28;20016;-73
2022/04/17 03:56:34;;;;;;;22.00;10.48;;;;;;;-0.90;65.49;99654.63;5092454;28;20020;-73
2022/04/17 03:59:01;;;;;;;23.27;10.15;;;;;;;-0.88;65.36;99658.97;5091921;28;20023;-73
2022/04/17 04:01:27;;;;;;;22.50;10.65;;;;;;;-0.82;65.68;99652.84;5092290;28;20024;-74
2022/04/17 04:03:54;;;;;;;23.63;10.57;;;;;;;-0.80;65.52;99654.28;5091783;28;20096;-73
2022/04/17 04:06:20;;;;;;;23.88;10.55;;;;;;;-0.77;65.58;99655.78;5091104;28;20073;-73
2022/04/17 04:08:48;;;;;;;23.45;10.90;;;;;;;-0.78;65.49;99652.25;5092314;28;20028;-74
2022/04/17 04:11:13;;;;;;;21.85;10.55;;;;;;;-0.77;65.75;99653.91;5088881;28;20025;-73
2022/04/17 04:13:39;;;;;;;19.48;9.68;;;;;;;-0.73;65.78;99658.91;5092149;28;20049;-73
2022/04/17 04:16:04;;;;;;;22.45;10.68;;;;;;;-0.71;65.92;99656.88;5089460;28;20381;-74
2022/04/17 04:18:30;;;;;;;18.92;10.10;;;;;;;-0.63;66.13;99652.19;5091493;28;20043;-74
2022/04/17 04:20:55;;;;;;;17.00;8.60;;;;;;;-0.54;66.11;99657.44;5088302;28;20111;-74
2022/04/17 04:23:21;;;;;;;22.45;10.63;;;;;;;-0.49;65.89;99655.84;5091637;28;20039;-73
2022/04/17 04:25:46;;;;;;;21.83;10.55;;;;;;;-0.43;66.02;99658.78;5091930;28;20020;-74
2022/04/17 04:30:55;;;;;;;17.63;8.60;;;;;;;-0.22;65.94;99660.63;5091897;28;20085;-73
2022/04/17 04:33:21;;;;;;;15.07;8.77;;;;;;;-0.04;66.52;99668.22;5090566;28;20028;-74
2022/04/17 04:35:46;;;;;;;15.15;7.55;;;;;;;0.10;66.22;99661.84;5091791;28;20030;-73
2022/04/17 04:38:12;;;;;;;20.92;10.98;;;;;;;0.20;65.94;99674.16;5091306;28;20370;-73
2022/04/17 04:40:37;;;;;;;17.50;9.52;;;;;;;0.32;66.24;99669.03;5091914;28;20032;-73
2022/04/17 04:43:04;;;;;;;16.33;9.68;;;;;;;0.34;65.69;99665.13;5091180;28;20024;-73
2022/04/17 04:48:14;;;;;;;18.23;10.02;;;;;;;0.34;65.58;99675.91;5090178;28;20750;-74
2022/04/17 04:50:40;;;;;;;21.10;10.02;;;;;;;0.32;65.49;99671.72;5089902;28;20016;-74
2022/04/17 04:53:06;;;;;;;21.08;10.95;;;;;;;0.43;65.66;99676.56;5091310;28;20024;-74
2022/04/17 04:55:31;;;;;;;22.27;9.93;;;;;;;0.50;65.46;99673.91;5091718;28;20769;-74
2022/04/17 04:57:57;;;;;;;16.88;9.65;;;;;;;0.53;65.65;99670.81;5090909;28;20044;-73
2022/04/17 05:00:23;;;;;;;18.55;9.18;;;;;;;0.61;65.76;99670.63;5090077;28;20115;-74
2022/04/17 05:02:48;;;;;;;19.58;9.13;;;;;;;0.70;65.50;99674.00;5091278;28;20024;-74
2022/04/17 05:05:13;;;;;;;17.80;9.80;;;;;;;0.75;65.58;99676.91;5089335;28;20057;-74
2022/04/17 05:07:39;;;;;;;19.85;10.00;;;;;;;0.76;65.37;99675.06;5089250;28;20028;-73
2022/04/17 05:10:06;;;;;;;23.25;11.00;;;;;;;0.77;65.27;99674.03;5091415;28;20028;-72
2022/04/17 05:12:31;;;;;;;18.52;9.40;;;;;;;0.80;65.43;99677.16;5090689;28;20082;-74
2022/04/17 05:14:57;;;;;;;20.05;9.48;;;;;;;0.88;65.77;99674.28;5090149;28;20032;-74
2022/04/17 05:17:23;;;;;;;19.65;9.65;;;;;;;0.89;65.70;99669.69;5089051;28;20043;-73
2022/04/17 05:19:49;;;;;;;19.58;9.75;;;;;;;0.92;66.20;99663.06;5088646;28;20043;-73
2022/04/17 05:22:19;;;;;;;20.52;10.77;;;;;;;0.98;66.18;99670.38;5088595;28;20032;-73
2022/04/17 05:24:46;;;;;;;21.27;12.60;;;;;;;1.06;65.91;99680.16;5090711;28;20020;-73
2022/04/17 05:27:12;;;;;;;19.38;10.95;;;;;;;1.14;65.68;99675.38;5091147;28;20036;-74
2022/04/17 05:29:38;;;;;;;20.00;10.50;;;;;;;1.21;65.66;99675.41;5088141;28;20043;-74
2022/04/17 05:32:04;;;;;;;18.50;10.70;;;;;;;1.26;65.49;99680.19;5086573;28;20060;-73
2022/04/17 05:34:30;;;;;;;20.63;11.32;;;;;;;1.32;65.35;99669.38;5086603;28;20090;-74
2022/04/17 05:36:56;;;;;;;17.77;10.65;;;;;;;1.48;65.54;99676.25;5089338;28;20039;-73
2022/04/17 05:39:22;;;;;;;20.40;10.25;;;;;;;1.60;65.67;99672.94;5089755;28;20390;-74
2022/04/17 05:41:48;;;;;;;19.10;9.98;;;;;;;1.65;65.71;99673.16;5090979;28;20024;-75
2022/04/17 05:44:14;;;;;;;21.83;11.00;;;;;;;1.66;65.48;99672.13;5091017;28;20462;-74
2022/04/17 05:46:41;;;;;;;20.58;11.32;;;;;;;1.64;65.36;99671.50;5090656;28;20399;-73
2022/04/17 05:49:07;;;;;;;25.13;12.07;;;;;;;1.75;65.07;99678.16;5086706;28;20094;-73
2022/04/17 05:51:36;;;;;;;28.10;13.10;;;;;;;1.76;65.65;99680.66;5090104;28;20081;-74
2022/04/17 05:54:06;;;;;;;603.90;226.00;;;;;;;1.78;65.16;99678.59;5088354;28;20050;-73
2022/04/17 05:56:32;;;;;;;146.25;54.33;;;;;;;1.83;65.62;99680.66;5093457;28;20020;-73
2022/04/17 05:58:57;;;;;;;58.75;35.92;;;;;;;1.86;65.31;99680.25;5097664;28;20047;-73
2022/04/17 06:01:24;;;;;;;35.75;20.25;;;;;;;1.99;65.55;99678.56;5094690;28;20063;-73
2022/04/17 06:03:50;;;;;;;30.98;16.73;;;;;;;2.11;65.34;99678.75;5091029;28;20020;-73
2022/04/17 06:06:19;;;;;;;159.30;54.25;;;;;;;2.16;65.19;99682.50;5094794;28;20031;-74
2022/04/17 06:08:47;;;;;;;242.65;74.25;;;;;;;2.32;65.20;99683.91;5094419;28;20028;-74
2022/04/17 06:11:14;;;;;;;111.90;36.60;;;;;;;2.46;65.03;99689.31;5092449;28;20054;-74
2022/04/17 06:13:39;;;;;;;85.05;28.48;;;;;;;2.57;65.78;99685.94;5091965;28;20073;-74
2022/04/17 06:16:05;;;;;;;26.38;12.25;;;;;;;2.57;65.34;99693.22;5092880;28;20028;-74
2022/04/17 06:18:30;;;;;;;128.80;39.42;;;;;;;2.53;64.94;99690.94;5092407;28;20028;-74
2022/04/17 06:20:56;;;;;;;33.70;16.90;;;;;;;2.55;64.92;99688.03;5092116;28;20039;-74
2022/04/17 06:23:23;;;;;;;155.70;45.50;;;;;;;2.60;64.94;99693.66;5091678;28;20024;-74
2022/04/17 06:25:48;;;;;;;28.23;13.00;;;;;;;2.52;64.63;99686.56;5090340;28;20393;-74
2022/04/17 06:28:14;;;;;;;31.13;13.95;;;;;;;2.48;64.39;99689.94;5089702;28;20028;-73
2022/04/17 06:30:39;;;;;;;51.78;19.65;;;;;;;2.53;64.52;99688.22;5091877;28;20032;-73
2022/04/17 06:33:04;;;;;;;66.85;23.52;;;;;;;2.53;65.02;99690.94;5094249;28;20031;-74
2022/04/17 06:35:30;;;;;;;22.77;11.90;;;;;;;2.54;64.18;99680.94;5091249;28;20042;-75
2022/04/17 06:37:56;;;;;;;50.47;24.30;;;;;;;2.55;64.83;99695.31;5094090;28;20111;-74
2022/04/17 06:40:28;;;;;;;35.80;17.05;;;;;;;2.57;64.91;99685.09;5087014;28;20359;-74
2022/04/17 06:42:56;;;;;;;31.42;15.63;;;;;;;2.58;64.80;99692.19;5092305;28;20032;-74
2022/04/17 06:45:22;;;;;;;60.67;23.50;;;;;;;2.64;65.19;99685.91;5091108;28;20032;-74
2022/04/17 06:47:48;;;;;;;189.32;65.78;;;;;;;2.67;65.00;99680.88;5090475;28;20059;-74
2022/04/17 06:50:16;;;;;;;51.15;21.95;;;;;;;2.79;65.00;99688.34;5091940;28;20068;-75
2022/04/17 06:52:41;;;;;;;37.40;18.80;;;;;;;2.92;65.31;99682.88;5093726;28;20089;-74
2022/04/17 06:55:11;;;;;;;37.75;20.45;;;;;;;2.99;64.94;99685.56;5092038;28;20032;-74
2022/04/17 06:57:39;;;;;;;29.98;15.57;;;;;;;3.01;65.38;99679.94;5093821;28;20028;-73
2022/04/17 07:00:06;;;;;;;25.80;15.27;;;;;;;3.06;64.88;99680.09;5092184;28;20024;-74
2022/04/17 07:02:32;;;;;;;29.00;16.33;;;;;;;3.17;65.34;99684.03;5095889;28;20465;-74
2022/04/17 07:04:57;;;;;;;23.67;13.52;;;;;;;3.27;64.58;99679.78;5091082;28;20115;-74
2022/04/17 07:07:23;;;;;;;31.15;17.27;;;;;;;3.37;64.43;99683.91;5093506;28;20381;-74
2022/04/17 07:09:48;;;;;;;34.08;18.38;;;;;;;3.42;64.73;99684.88;5092122;28;20470;-74
2022/04/17 07:12:14;;;;;;;22.08;12.35;;;;;;;3.48;64.48;99679.66;5092365;28;20115;-75
2022/04/17 07:14:40;;;;;;;22.60;13.68;;;;;;;3.56;64.53;99682.91;5092120;28;20039;-74
2022/04/17 07:17:06;;;;;;;23.45;13.60;;;;;;;3.62;63.95;99685.81;5092449;28;20028;-78
2022/04/17 07:19:31;;;;;;;24.95;14.75;;;;;;;3.70;64.07;99682.81;5090810;28;20032;-73
2022/04/17 07:21:58;;;;;;;30.52;16.60;;;;;;;3.79;63.93;99678.78;5092392;28;20032;-73
2022/04/17 07:24:24;;;;;;;26.17;14.15;;;;;;;3.83;64.01;99679.16;5091286;28;20097;-73
2022/04/17 07:26:53;;;;;;;26.67;15.48;;;;;;;3.93;63.57;99684.94;5092873;28;20028;-73
2022/04/17 07:29:23;;;;;;;25.98;15.00;;;;;;;4.04;63.55;99685.25;5089701;28;20031;-73
2022/04/17 07:31:53;;;;;;;24.40;13.40;;;;;;;4.06;64.21;99678.53;5092551;28;20394;-73
2022/04/17 07:34:21;;;;;;;24.30;13.90;;;;;;;4.19;63.69;99682.19;5090762;28;20554;-73
2022/04/17 07:36:47;;;;;;;25.00;15.05;;;;;;;4.29;63.38;99679.78;5090626;28;20031;-73
2022/04/17 07:39:18;;;;;;;20.60;11.27;;;;;;;4.41;62.54;99679.88;5092490;28;20032;-72
2022/04/17 07:41:46;;;;;;;21.05;12.63;;;;;;;4.52;62.14;99681.00;5090917;28;20016;-73
2022/04/17 07:44:11;;;;;;;19.42;11.70;;;;;;;4.57;62.06;99678.44;5092651;28;20537;-73
2022/04/17 07:46:40;;;;;;;19.48;10.77;;;;;;;4.61;62.47;99674.22;5092533;28;20066;-73
2022/04/17 07:49:06;;;;;;;20.00;12.20;;;;;;;4.72;62.00;99680.78;5090550;28;20047;-74
2022/04/17 07:51:32;;;;;;;19.00;10.10;;;;;;;4.78;62.26;99666.28;5090342;28;20490;-74
2022/04/17 07:53:57;;;;;;;17.73;10.15;;;;;;;4.80;61.37;99666.88;5092433;28;20016;-73
2022/04/17 07:56:23;;;;;;;18.17;10.77;;;;;;;4.90;61.35;99658.19;5092900;28;20020;-73
2022/04/17 07:58:49;;;;;;;16.35;9.38;;;;;;;4.99;61.45;99664.97;5091162;28;20055;-73
2022/04/17 08:01:16;;;;;;;18.27;10.40;;;;;;;5.09;61.75;99660.88;5088679;28;20026;-73
2022/04/17 08:06:12;;;;;;;14.80;8.48;;;;;;;5.29;60.81;99650.53;5091553;28;20032;-74
2022/04/17 08:08:39;;;;;;;;;;;;;;;5.36;61.44;99651.25;5092260;28;20027;-72
2022/04/17 08:11:05;;;;;;;15.60;9.45;;;;;;;5.42;60.07;99643.22;5091230;28;19962;-73
2022/04/17 08:13:31;;;;;;;16.73;8.35;;;;;;;5.49;60.00;99650.22;5092399;28;20363;-73
2022/04/17 08:15:56;;;;;;;17.08;8.00;;;;;;;5.56;60.04;99646.56;5089730;28;20039;-73
2022/04/17 08:18:22;;;;;;;15.52;9.00;;;;;;;5.64;59.63;99640.78;5083296;28;20039;-74
2022/04/17 08:20:47;;;;;;;13.73;8.13;;;;;;;5.71;58.94;99638.75;5088462;28;20474;-74
2022/04/17 08:23:13;;;;;;;13.88;8.38;;;;;;;5.77;57.78;99637.00;5091124;28;20043;-74
2022/04/17 08:25:38;;;;;;;10.88;7.13;;;;;;;5.88;58.01;99630.75;5090392;28;20020;-73
2022/04/17 08:28:04;;;;;;;9.88;6.47;;;;;;;5.95;57.96;99636.06;5091634;28;20377;-73
2022/04/17 08:30:31;;;;;;;13.85;8.18;;;;;;;6.09;57.38;99633.97;5090640;28;20413;-73
2022/04/17 08:32:58;;;;;;;10.95;6.72;;;;;;;6.21;57.38;99623.91;5087102;28;20024;-74
2022/04/17 08:35:23;;;;;;;7.38;4.32;;;;;;;6.40;54.62;99621.00;5091220;28;20039;-74
2022/04/17 08:37:52;;;;;;;9.95;5.72;;;;;;;6.57;55.29;99617.56;5087957;28;20382;-73
2022/04/17 08:40:17;;;;;;;11.20;7.45;;;;;;;6.79;56.17;99618.53;5091830;28;20126;-74
2022/04/17 08:42:44;;;;;;;8.95;6.43;;;;;;;6.95;55.64;99618.84;5091944;28;20110;-74
2022/04/17 08:45:10;;;;;;;14.18;6.22;;;;;;;7.07;55.13;99613.31;5091192;28;20047;-74
2022/04/17 08:47:38;;;;;;;6.20;3.75;;;;;;;7.32;53.52;99620.34;5091797;28;20028;-74
2022/04/17 08:50:08;;;;;;;9.18;5.35;;;;;;;7.59;54.36;99615.03;5090585;28;20020;-74
2022/04/17 08:52:34;;;;;;;8.80;5.28;;;;;;;7.78;52.21;99612.06;5090871;28;20027;-74
2022/04/17 08:55:00;;;;;;;10.63;6.47;;;;;;;7.89;50.26;99616.63;5091666;28;20048;-74
2022/04/17 08:57:27;;;;;;;32.85;12.60;;;;;;;7.98;50.37;99617.00;5091669;28;20086;-73
2022/04/17 08:59:52;;;;;;;25.60;11.48;;;;;;;8.16;50.01;99605.78;5091146;28;20030;-73
2022/04/17 09:02:18;;;;;;;16.42;9.70;;;;;;;8.37;50.38;99597.03;5091041;28;20374;-74
2022/04/17 09:04:45;;;;;;;7.90;4.95;;;;;;;8.63;50.17;99600.94;5091199;28;20425;-73
2022/04/17 09:07:12;;;;;;;9.25;6.18;;;;;;;8.74;50.43;99604.66;5089672;28;20116;-73
2022/04/17 09:09:48;;;;;;;170.00;44.08;;;;;;;8.69;47.62;99604.59;5089730;28;20086;-73
2022/04/17 09:12:21;;;;;;;45.72;20.38;;;;;;;8.70;48.66;99606.25;5088339;28;20103;-72
2022/04/17 09:14:47;;;;;;;61.08;17.65;;;;;;;8.53;45.70;99587.97;5089554;28;20028;-73
2022/04/17 09:17:12;;;;;;;70.00;19.42;;;;;;;8.47;45.88;99594.44;5089553;28;20568;-73
2022/04/17 09:19:38;;;;;;;11.05;6.07;;;;;;;8.58;46.42;99593.53;5089864;28;20018;-72
2022/04/17 09:22:08;;;;;;;44.05;14.60;;;;;;;8.70;46.60;99578.88;5089609;28;20036;-73
2022/04/17 09:24:36;;;;;;;55.35;19.55;;;;;;;8.87;48.05;99585.09;5089724;28;20030;-74
2022/04/17 09:27:03;;;;;;;54.47;16.73;;;;;;;9.09;47.74;99574.09;5089466;28;20674;-74
2022/04/17 09:29:35;;;;;;;53.00;17.48;;;;;;;9.28;45.99;99575.63;5083940;28;20036;-73
2022/04/17 09:32:07;;;;;;;19.73;8.30;;;;;;;9.46;47.38;99557.97;5094380;28;20028;-73
2022/04/17 09:34:44;;;;;;;6.95;4.35;;;;;;;9.61;45.75;99557.25;5095201;28;20038;-73
2022/04/17 09:37:18;;;;;;;8.13;4.55;;;;;;;9.63;44.10;99560.56;5093858;28;20071;-72
2022/04/17 09:39:45;;;;;;;191.43;52.30;;;;;;;9.58;42.89;99550.41;5093054;28;20428;-75
2022/04/17 09:42:11;;;;;;;19.52;8.38;;;;;;;9.45;43.20;99537.16;5090589;28;20030;-78
2022/04/17 09:44:55;;;;;;;16.77;7.57;;;;;;;9.48;44.39;99539.38;5092966;28;20043;-78
2022/04/17 09:47:28;;;;;;;24.05;9.07;;;;;;;9.49;43.51;99535.53;5093797;28;20030;-77
2022/04/17 09:50:02;;;;;;;9.73;4.75;;;;;;;9.56;44.28;99529.88;5091627;28;20812;-78
2022/04/17 09:52:31;;;;;;;5.55;3.90;;;;;;;9.60;44.64;99530.97;5093696;28;20060;-78
2022/04/17 09:54:58;;;;;;;17.15;7.57;;;;;;;9.74;44.27;99534.09;5093524;28;20035;-78
2022/04/17 09:57:29;;;;;;;15.77;7.03;;;;;;;9.66;41.56;99538.97;5091197;28;20031;-77
2022/04/17 09:59:56;;;;;;;11.55;6.15;;;;;;;9.59;43.15;99537.53;5091015;28;20035;-76
2022/04/17 10:02:25;;;;;;;11.52;6.13;;;;;;;9.52;42.59;99545.97;5092780;28;20099;-76
2022/04/17 10:04:51;;;;;;;7.45;5.03;;;;;;;9.41;42.35;99544.25;5090145;28;20063;-75
2022/04/17 10:07:22;;;;;;;8.07;4.30;;;;;;;9.34;43.58;99533.53;5094048;28;20579;-75
2022/04/17 10:09:48;;;;;;;5.63;4.00;;;;;;;9.38;43.61;99546.41;5093534;28;20028;-79
2022/04/17 10:12:19;;;;;;;7.07;4.10;;;;;;;9.43;44.44;99537.44;5093758;28;20386;-79
2022/04/17 10:14:48;;;;;;;4.93;4.03;;;;;;;9.55;43.58;99528.22;5094175;28;20092;-78
2022/04/17 10:17:14;;;;;;;5.10;3.80;;;;;;;9.73;44.38;99524.22;5092859;28;20060;-76
2022/04/17 10:19:42;;;;;;;6.80;3.30;;;;;;;9.87;44.04;99513.63;5091718;28;20043;-79
2022/04/17 10:22:10;;;;;;;5.95;3.70;;;;;;;10.06;43.80;99517.53;5094062;28;20052;-79
2022/04/17 10:24:38;;;;;;;5.32;3.47;;;;;;;10.13;43.61;99509.91;5094111;28;20036;-79
2022/04/17 10:27:07;;;;;;;6.75;4.13;;;;;;;10.07;43.39;99513.69;5094264;28;20035;-79
2022/04/17 10:29:45;;;;;;;7.20;4.75;;;;;;;9.98;41.75;99520.81;5094244;28;20093;-77
2022/04/17 10:32:32;;;;;;;9.20;5.90;;;;;;;9.71;42.12;99508.03;5092252;28;20378;-76
2022/04/17 10:35:17;;;;;;;6.90;4.60;;;;;;;9.52;41.71;99513.13;5093012;28;20032;-76
2022/04/17 10:38:13;;;;;;;5.82;4.80;;;;;;;9.59;41.89;99507.41;5092622;28;20117;-77
2022/04/17 10:40:38;;;;;;;6.50;3.85;;;;;;;9.56;41.84;99500.56;5087267;28;20035;-75
2022/04/17 10:43:05;;;;;;;5.63;3.72;;;;;;;9.59;42.45;99504.66;5092246;28;20024;-75
2022/04/17 10:45:31;;;;;;;5.00;3.78;;;;;;;9.55;42.24;99498.91;5093445;28;20316;-75
2022/04/17 10:48:05;;;;;;;8.73;5.63;;;;;;;9.74;43.19;99510.25;5093875;28;20063;-75
2022/04/17 10:50:48;;;;;;;9.85;5.65;;;;;;;9.95;41.00;99504.91;5093903;28;20035;-75
2022/04/17 10:53:22;;;;;;;7.82;4.63;;;;;;;10.05;42.58;99499.44;5093533;28;20470;-75
2022/04/17 10:56:08;;;;;;;73.18;24.17;;;;;;;10.28;42.78;99491.88;5093385;28;20038;-75
2022/04/17 10:58:40;;;;;;;51.40;19.27;;;;;;;10.45;41.51;99485.34;5093554;28;20115;-75
2022/04/17 11:01:06;;;;;;;85.60;27.73;;;;;;;10.43;41.71;99472.72;5093626;28;20557;-76
2022/04/17 11:03:34;;;;;;;11.05;5.97;;;;;;;10.36;41.15;99472.16;5093343;28;20099;-76
2022/04/17 11:06:33;;;;;;;6.55;4.20;;;;;;;10.29;41.30;99471.59;5093961;28;20123;-76
2022/04/17 11:09:10;;;;;;;6.05;3.92;;;;;;;10.12;39.90;99464.38;5089487;28;20478;-76
2022/04/17 11:11:40;;;;;;;5.40;3.30;;;;;;;9.96;40.17;99460.75;5093569;28;20119;-76
2022/04/17 11:14:18;;;;;;;4.38;2.85;;;;;;;9.87;39.90;99464.28;5093301;28;20404;-76
2022/04/17 11:17:01;;;;;;;5.68;3.20;;;;;;;9.82;40.15;99459.59;5093269;28;20048;-76
2022/04/17 11:19:29;;;;;;;5.95;3.83;;;;;;;10.02;41.44;99449.81;5093633;28;20047;-76
2022/04/17 11:21:58;;;;;;;6.35;3.55;;;;;;;10.26;41.58;99450.19;5091686;28;20039;-76
2022/04/17 11:24:24;;;;;;;6.05;4.53;;;;;;;10.39;42.14;99457.91;5093096;28;20541;-76
2022/04/17 11:26:52;;;;;;;7.88;5.60;;;;;;;10.49;40.56;99450.81;5093055;28;20119;-76
2022/04/17 11:29:50;;;;;;;5.75;4.35;;;;;;;10.42;40.19;99449.16;5092683;28;20474;-76
2022/04/17 11:32:18;;;;;;;5.78;3.78;;;;;;;10.41;39.95;99450.25;5093140;28;20425;-76
2022/04/17 11:34:47;;;;;;;9.02;6.32;;;;;;;10.35;39.22;99445.00;5093067;28;20048;-76
2022/04/17 11:37:16;;;;;;;5.77;4.07;;;;;;;10.43;39.74;99444.50;5093130;28;20481;-76
2022/04/17 11:39:42;;;;;;;4.83;3.57;;;;;;;10.70;40.53;99441.53;5092591;28;20036;-76
2022/04/17 11:42:09;;;;;;;4.53;2.88;;;;;;;10.95;40.25;99433.59;5091465;28;20481;-77
2022/04/17 11:44:35;;;;;;;11.05;6.95;;;;;;;11.04;38.61;99431.91;5092531;28;20067;-76
2022/04/17 11:47:01;;;;;;;4.97;3.92;;;;;;;10.96;38.08;99425.06;5093016;28;20442;-76